Terminal Aerodrome Forecast
Issued by NWS Burlington, VT

Home | Current Version | Previous Version | Text Only | Print | Product List | Glossary On
Versions: 1 2 3 4 5 6 7 8 9 10 11 12 13 14 15 16 17 18
000
FTUS41 KBTV 290530
TAFBTV
TAF
KBTV 290530Z 2906/3006 VRB03KT P6SM SKC
     FM291500 17007KT P6SM BKN150 BKN200
     FM292000 17010KT P6SM OVC100
     FM300000 17012G20KT P6SM OVC050
     FM300200 17014G20KT 6SM -SN OVC035=

USA.gov is the U.S. government's official web portal to all federal, state and local government web resources and services.